X  CloseMetar Aviation Weather Data     YMAV Avalon Airport

Temperature

17°C Temperature

13°C Dewpoint

77% Humidity



Wind

39 KM/H

24 MPH

11 M/S

21 KTS



100°
Due East
Current Conditions

Clear Clear
Pressure 1025.92 (hPa) - 30.3 (in)
Visibility 6.2 (mi) - 10 (km)
Airport
Airport-code YMAV

Location Avalon Airport 14 (km)

Metar:
YMAV 191630Z AUTO 10021KT 9999 // NCD 17/13 Q1026 RF00.0/000.0

Time: 20-01-2022 03:30